Country
Station

 

Weather  for  Hamburg-Finkenwerder  -  Germany    Germany

  
5 °C (41 °F)
    
 
 

Current METAR for Hamburg-Finkenwerder is :

EDHI 121450Z 19008KT 9999 BKN042 05/03 Q0997

 

This is a report for Hamburg-Finkenwerder - Germany.
 
The report was made 8 minutes ago, at 14:50 UTC .
The wind was blowing at a speed of 4.1 meters per second (9.2 miles per hour) from south (190°).
 
The temperature was 5 °C (41 °F), with a dew-point at 3 °C (37 °F).
The atmospheric pressure was 997 hPa (29.44 inHg).
The relative humidity was 86.9%.
 
There were broken clouds at a height of 1280 meters (4200 feet).
 
The overall visibility was greater than 10 kilometers (6.2 miles).
 

 
 
 
 

Country :   A   B   C   D   E   F   G   H   I   J   K   L   M   N   O   P   Q   R   S   T   U   V   W   Y   Z

 

Site Info  |  Disclaimer  |  Credits  |  Privacy
Contact us  |  Add to favorites
© 2013-2019 METARs - All rights reserved